createdAt,value
2019-01-19T00:00:48.597Z,61.25
2019-01-19T00:03:37.973Z,60.94
2019-01-19T00:06:35.957Z,61.08
2019-01-19T00:09:17.683Z,60.42
2019-01-19T00:12:37.145Z,60.92
2019-01-19T00:15:30.471Z,60.53
2019-01-19T00:18:15.608Z,60.30
2019-01-19T00:20:57.181Z,61.16
2019-01-19T00:24:04.137Z,61.28
2019-01-19T00:27:30.022Z,60.60
2019-01-19T00:30:22.915Z,60.04
2019-01-19T00:33:30.507Z,60.86
2019-01-19T00:36:35.889Z,60.23
2019-01-19T00:39:52.184Z,59.91
2019-01-19T00:42:48.737Z,60.57
2019-01-19T00:45:51.911Z,60.01
2019-01-19T00:49:07.393Z,60.00
2019-01-19T00:52:06.598Z,59.90
2019-01-19T00:55:12.897Z,60.00
2019-01-19T00:58:01.345Z,60.44
2019-01-19T01:01:02.497Z,60.98
2019-01-19T01:04:02.455Z,59.94
2019-01-19T01:07:17.773Z,60.88
2019-01-19T01:10:23.527Z,61.29
2019-01-19T01:13:20.426Z,61.81
2019-01-19T01:16:00.826Z,60.75
2019-01-19T01:18:49.803Z,60.89
2019-01-19T01:22:09.442Z,60.36
2019-01-19T01:24:59.232Z,61.30
2019-01-19T01:28:19.221Z,60.84
2019-01-19T01:31:01.124Z,60.79
2019-01-19T01:33:59.099Z,60.92
2019-01-19T01:36:59.504Z,60.53
2019-01-19T01:40:11.780Z,60.40
2019-01-19T01:43:25.590Z,61.19
2019-01-19T01:46:08.271Z,60.61
2019-01-19T01:49:27.706Z,60.90
2019-01-19T01:52:29.771Z,60.13
2019-01-19T01:55:22.571Z,61.33
2019-01-19T01:58:01.517Z,61.55
2019-01-19T02:01:13.564Z,60.27
2019-01-19T02:03:58.706Z,61.13
2019-01-19T02:06:49.605Z,60.69
2019-01-19T02:09:52.876Z,60.70
2019-01-19T02:12:44.872Z,61.50
2019-01-19T02:16:01.179Z,61.03
2019-01-19T02:18:55.741Z,61.14
2019-01-19T02:22:10.203Z,61.36
2019-01-19T02:24:55.974Z,60.61
2019-01-19T02:28:06.674Z,61.22
2019-01-19T02:31:12.504Z,60.67
2019-01-19T02:33:54.731Z,61.08
2019-01-19T02:37:17.275Z,61.27
2019-01-19T02:40:42.684Z,61.22
2019-01-19T02:43:45.448Z,61.10
2019-01-19T02:47:00.201Z,61.10
2019-01-19T02:50:04.257Z,61.75
2019-01-19T02:53:12.111Z,60.26
2019-01-19T02:56:28.527Z,61.14
2019-01-19T02:59:27.460Z,61.59
2019-01-19T03:02:22.344Z,59.89
2019-01-19T03:05:15.466Z,60.28
2019-01-19T03:08:02.895Z,61.33
2019-01-19T03:10:54.820Z,60.79
2019-01-19T03:13:44.159Z,61.00
2019-01-19T03:16:56.890Z,61.09
2019-01-19T03:20:05.838Z,61.05
2019-01-19T03:23:21.220Z,60.84
2019-01-19T03:26:18.403Z,61.23
2019-01-19T03:29:20.548Z,60.88
2019-01-19T03:32:23.989Z,61.24
2019-01-19T03:35:50.077Z,60.03
2019-01-19T03:39:12.695Z,60.50
2019-01-19T03:41:59.487Z,60.44
2019-01-19T03:44:34.748Z,59.87
2019-01-19T03:47:44.871Z,61.72
2019-01-19T03:50:53.218Z,61.29
2019-01-19T03:53:40.960Z,60.70
2019-01-19T03:56:16.047Z,60.89
2019-01-19T03:59:23.414Z,61.16
2019-01-19T04:02:22.548Z,60.42
2019-01-19T04:05:44.073Z,61.39
2019-01-19T04:08:30.158Z,61.15
2019-01-19T04:11:29.487Z,60.79
2019-01-19T04:14:15.208Z,60.58
2019-01-19T04:17:22.876Z,60.61
2019-01-19T04:20:09.438Z,60.60
2019-01-19T04:22:50.571Z,60.81
2019-01-19T04:25:43.188Z,60.70
2019-01-19T04:28:14.417Z,60.70
2019-01-19T04:30:43.753Z,60.61
2019-01-19T04:33:13.084Z,60.86
2019-01-19T04:35:42.442Z,60.92
2019-01-19T04:38:11.764Z,60.92
2019-01-19T04:40:41.089Z,61.17
2019-01-19T04:43:10.448Z,60.46
2019-01-19T04:45:39.791Z,60.74
2019-01-19T04:48:09.124Z,61.01
2019-01-19T04:50:38.594Z,61.81
2019-01-19T04:53:07.921Z,60.83
2019-01-19T04:55:37.230Z,60.85
2019-01-19T04:58:06.564Z,60.72
2019-01-19T05:00:35.890Z,61.10
2019-01-19T05:03:05.432Z,60.76
2019-01-19T05:05:34.747Z,61.25
2019-01-19T05:08:04.233Z,61.56
2019-01-19T05:10:33.567Z,61.36
2019-01-19T05:13:02.901Z,61.25
2019-01-19T05:15:32.262Z,60.67
2019-01-19T05:18:01.786Z,60.98
2019-01-19T05:20:31.127Z,61.08
2019-01-19T05:23:00.577Z,61.12
2019-01-19T05:25:29.907Z,61.43
2019-01-19T05:27:59.238Z,59.51
2019-01-19T05:30:28.554Z,60.58
2019-01-19T05:32:57.958Z,61.13
2019-01-19T05:35:27.271Z,60.55
2019-01-19T05:37:56.597Z,60.11
2019-01-19T05:40:25.990Z,60.79
2019-01-19T05:42:55.415Z,60.31
2019-01-19T05:45:24.699Z,61.19
2019-01-19T05:47:54.009Z,61.42
2019-01-19T05:50:23.676Z,60.25
2019-01-19T05:52:52.998Z,61.22
2019-01-19T05:55:22.425Z,61.81
2019-01-19T05:57:51.809Z,61.93
2019-01-19T06:00:34.044Z,60.83
2019-01-19T06:03:03.445Z,61.32
2019-01-19T06:05:32.858Z,61.40
2019-01-19T06:08:02.277Z,60.99
2019-01-19T06:10:31.613Z,61.51
2019-01-19T06:13:00.931Z,61.34
2019-01-19T06:15:30.250Z,60.18
2019-01-19T06:17:59.650Z,60.55
2019-01-19T06:20:28.979Z,60.18
2019-01-19T06:22:58.328Z,60.84
2019-01-19T06:25:27.688Z,60.57
2019-01-19T06:27:57.106Z,60.58
2019-01-19T06:30:26.463Z,60.68
2019-01-19T06:32:55.795Z,61.06
2019-01-19T06:35:25.337Z,60.11
2019-01-19T06:37:54.735Z,60.89
2019-01-19T06:40:24.063Z,60.90
2019-01-19T06:42:53.439Z,60.45
2019-01-19T06:45:25.029Z,60.65
2019-01-19T06:47:54.421Z,60.99
2019-01-19T06:50:23.883Z,61.76
2019-01-19T06:52:53.327Z,60.41
2019-01-19T06:55:31.103Z,60.88
2019-01-19T06:58:00.453Z,60.49
2019-01-19T07:00:29.847Z,60.57
2019-01-19T07:02:59.163Z,60.21
2019-01-19T07:05:28.565Z,59.95
2019-01-19T07:07:57.929Z,61.01
2019-01-19T07:10:27.586Z,60.56
2019-01-19T07:12:56.937Z,60.46
2019-01-19T07:15:26.247Z,60.63
2019-01-19T07:17:55.629Z,61.58
2019-01-19T07:20:27.640Z,60.21
2019-01-19T07:22:56.945Z,60.53
2019-01-19T07:25:26.270Z,60.28
2019-01-19T07:27:55.643Z,61.58
2019-01-19T07:30:24.982Z,61.53
2019-01-19T07:32:54.383Z,61.69
2019-01-19T07:35:23.736Z,61.71
2019-01-19T07:37:53.130Z,60.27
2019-01-19T07:40:22.552Z,60.29
2019-01-19T07:42:56.737Z,60.69
2019-01-19T07:45:26.152Z,61.00
2019-01-19T07:47:55.464Z,60.95
2019-01-19T07:50:24.949Z,60.77
2019-01-19T07:52:54.245Z,60.67
2019-01-19T07:55:23.561Z,60.79
2019-01-19T07:57:54.519Z,60.86
2019-01-19T08:00:26.315Z,60.32
2019-01-19T08:02:55.716Z,60.68
2019-01-19T08:05:25.115Z,60.75
2019-01-19T08:07:54.430Z,61.42
2019-01-19T08:10:23.828Z,60.56
2019-01-19T08:12:53.190Z,61.07
2019-01-19T08:15:24.404Z,60.29
2019-01-19T08:17:53.880Z,60.17
2019-01-19T08:20:23.299Z,60.36
2019-01-19T08:22:52.722Z,60.18
2019-01-19T08:25:22.107Z,60.21
2019-01-19T08:27:51.414Z,60.47
2019-01-19T08:30:25.952Z,59.89
2019-01-19T08:32:55.435Z,59.88
2019-01-19T08:35:24.923Z,59.94
2019-01-19T08:37:54.359Z,59.52
2019-01-19T08:40:29.117Z,59.42
2019-01-19T08:43:03.068Z,59.15
2019-01-19T08:45:32.389Z,57.81
2019-01-19T08:48:02.712Z,57.64
2019-01-19T08:50:32.137Z,57.46
2019-01-19T08:53:01.546Z,57.28
2019-01-19T08:55:30.865Z,57.33
2019-01-19T08:58:00.256Z,57.33
2019-01-19T09:00:29.692Z,56.98
2019-01-19T09:02:59.039Z,56.78
2019-01-19T09:05:28.460Z,56.74
2019-01-19T09:07:57.894Z,56.96
2019-01-19T09:10:27.262Z,56.95
2019-01-19T09:12:56.603Z,56.86
2019-01-19T09:15:25.984Z,57.44
2019-01-19T09:17:55.299Z,58.09
2019-01-19T09:20:24.613Z,57.60
2019-01-19T09:22:58.499Z,57.62
2019-01-19T09:25:28.011Z,57.33
2019-01-19T09:27:57.338Z,57.77
2019-01-19T09:30:26.663Z,57.86
2019-01-19T09:32:56.183Z,57.83
2019-01-19T09:35:25.775Z,57.47
2019-01-19T09:37:55.139Z,57.55
2019-01-19T09:40:24.486Z,56.93
2019-01-19T09:42:53.957Z,56.35
2019-01-19T09:45:23.352Z,56.73
2019-01-19T09:47:52.701Z,58.22
2019-01-19T09:50:22.112Z,56.71
2019-01-19T09:52:51.560Z,56.97
2019-01-19T09:55:20.991Z,56.69
2019-01-19T09:57:50.539Z,55.36
2019-01-19T10:00:20.187Z,56.50
2019-01-19T10:02:49.699Z,56.87
2019-01-19T10:05:20.864Z,57.45
2019-01-19T10:07:50.347Z,57.71
2019-01-19T10:10:20.115Z,56.71
2019-01-19T10:12:49.543Z,57.02
2019-01-19T10:15:19.040Z,55.50
2019-01-19T10:17:48.528Z,56.62
2019-01-19T10:20:19.752Z,55.87
2019-01-19T10:22:49.180Z,56.38
2019-01-19T10:25:18.542Z,58.00
2019-01-19T10:27:48.013Z,58.28
2019-01-19T10:30:19.601Z,54.20
2019-01-19T10:32:49.786Z,57.35
2019-01-19T10:35:19.212Z,56.66
2019-01-19T10:37:55.667Z,56.71
2019-01-19T10:40:19.667Z,57.67
2019-01-19T10:42:49.102Z,58.35
2019-01-19T10:45:20.700Z,56.51
2019-01-19T10:47:50.178Z,61.30
2019-01-19T10:50:19.691Z,56.96
2019-01-19T10:52:49.226Z,58.57
2019-01-19T10:55:19.544Z,56.05
2019-01-19T10:57:48.936Z,56.69
2019-01-19T11:00:23.649Z,58.37
2019-01-19T11:02:53.286Z,55.62
2019-01-19T11:05:22.813Z,55.94
2019-01-19T11:07:52.389Z,56.62
2019-01-19T11:10:23.713Z,59.73
2019-01-19T11:12:53.125Z,57.72
2019-01-19T11:15:22.534Z,53.89
2019-01-19T11:17:52.021Z,53.51
2019-01-19T11:20:23.489Z,53.18
2019-01-19T11:22:52.965Z,53.47
2019-01-19T11:25:22.443Z,53.42
2019-01-19T11:27:51.771Z,54.80
2019-01-19T11:30:23.150Z,52.26
2019-01-19T11:32:52.614Z,59.89
2019-01-19T11:35:22.107Z,53.75
2019-01-19T11:37:51.623Z,54.30
2019-01-19T11:40:23.549Z,50.34
2019-01-19T11:42:52.871Z,53.71
2019-01-19T11:45:22.834Z,54.39
2019-01-19T11:47:52.403Z,54.87
2019-01-19T11:50:22.816Z,56.43
2019-01-19T11:52:52.315Z,54.52
2019-01-19T11:55:21.782Z,58.61
2019-01-19T11:57:53.335Z,54.62
2019-01-19T12:00:24.594Z,52.81
2019-01-19T12:02:54.190Z,54.02
2019-01-19T12:05:23.540Z,54.18
2019-01-19T12:07:52.937Z,56.94
2019-01-19T12:10:24.372Z,55.77
2019-01-19T12:12:53.840Z,56.68
2019-01-19T12:15:23.177Z,53.17
2019-01-19T12:17:52.667Z,52.28
2019-01-19T12:20:24.466Z,55.97
2019-01-19T12:22:54.330Z,53.48
2019-01-19T12:25:23.869Z,54.43
2019-01-19T12:27:53.602Z,55.08
2019-01-19T12:30:25.041Z,56.31
2019-01-19T12:32:54.474Z,57.36
2019-01-19T12:35:23.917Z,54.74
2019-01-19T12:37:53.329Z,58.58
2019-01-19T12:40:23.830Z,66.14
2019-01-19T12:42:55.883Z,57.10
2019-01-19T12:45:28.379Z,60.75
2019-01-19T12:47:57.898Z,60.51
2019-01-19T12:50:27.448Z,64.89
2019-01-19T12:52:56.875Z,59.01
2019-01-19T12:55:26.235Z,54.75
2019-01-19T12:57:55.657Z,59.93
2019-01-19T13:00:26.034Z,53.24
2019-01-19T13:02:55.676Z,53.43
2019-01-19T13:05:28.787Z,58.94
2019-01-19T13:07:58.216Z,52.54
2019-01-19T13:10:37.036Z,54.76
2019-01-19T13:13:18.429Z,52.42
2019-01-19T13:16:32.004Z,57.21
2019-01-19T13:19:15.749Z,55.80
2019-01-19T13:22:29.725Z,56.37
2019-01-19T13:25:46.141Z,55.29
2019-01-19T13:28:38.376Z,65.74
2019-01-19T13:31:53.538Z,59.04
2019-01-19T13:34:55.424Z,56.38
2019-01-19T13:38:03.967Z,58.54
2019-01-19T13:40:58.209Z,61.61
2019-01-19T13:44:18.012Z,64.56
2019-01-19T13:47:23.355Z,62.75
2019-01-19T13:50:14.221Z,62.65
2019-01-19T13:53:15.207Z,61.10
2019-01-19T13:56:14.331Z,63.07
2019-01-19T13:58:51.915Z,58.96
2019-01-19T14:01:53.902Z,60.76
2019-01-19T14:04:55.747Z,62.90
2019-01-19T14:07:52.650Z,60.72
2019-01-19T14:10:28.282Z,57.13
2019-01-19T14:13:31.653Z,59.92
2019-01-19T14:16:17.416Z,59.11
2019-01-19T14:19:05.535Z,57.73
2019-01-19T14:21:59.179Z,58.18
2019-01-19T14:25:21.738Z,63.01
2019-01-19T14:28:09.278Z,60.02
2019-01-19T14:31:14.493Z,62.39
2019-01-19T14:34:28.562Z,60.15
2019-01-19T14:37:09.678Z,61.79
2019-01-19T14:39:50.949Z,61.62
2019-01-19T14:42:56.951Z,57.68
2019-01-19T14:46:09.646Z,57.89
2019-01-19T14:48:56.702Z,56.12
2019-01-19T14:51:54.378Z,56.77
2019-01-19T14:54:54.391Z,58.02
2019-01-19T14:57:54.561Z,57.10
2019-01-19T15:01:01.738Z,57.52
2019-01-19T15:03:59.928Z,54.73
2019-01-19T15:07:16.546Z,57.83
2019-01-19T15:10:24.346Z,57.20
2019-01-19T15:13:37.650Z,54.14
2019-01-19T15:16:30.132Z,57.64
2019-01-19T15:19:30.138Z,57.93
2019-01-19T15:22:18.025Z,56.91
2019-01-19T15:25:17.065Z,58.05
2019-01-19T15:27:59.104Z,55.92
2019-01-19T15:31:00.997Z,58.81
2019-01-19T15:34:12.751Z,60.15
2019-01-19T15:37:19.147Z,60.60
2019-01-19T15:40:36.645Z,57.75
2019-01-19T15:43:19.202Z,59.82
2019-01-19T15:46:28.366Z,60.77
2019-01-19T15:49:37.721Z,58.99
2019-01-19T15:52:19.390Z,57.18
2019-01-19T15:55:32.055Z,59.46
2019-01-19T15:58:42.786Z,57.10
2019-01-19T16:01:52.713Z,58.81
2019-01-19T16:04:52.335Z,57.61
2019-01-19T16:07:58.199Z,58.32
2019-01-19T16:11:03.427Z,58.13
2019-01-19T16:14:09.767Z,57.45
2019-01-19T16:17:21.382Z,57.33
2019-01-19T16:20:28.819Z,56.94
2019-01-19T16:23:30.786Z,56.52
2019-01-19T16:27:11.543Z,55.86
2019-01-19T16:30:10.845Z,55.53
2019-01-19T16:33:30.328Z,55.12
2019-01-19T16:36:30.377Z,55.26
2019-01-19T16:39:40.915Z,54.97
2019-01-19T16:42:51.276Z,54.32
2019-01-19T16:45:42.615Z,54.31
2019-01-19T16:48:34.753Z,53.46
2019-01-19T16:51:39.687Z,53.29
2019-01-19T16:54:17.050Z,52.80
2019-01-19T16:57:22.133Z,52.75
2019-01-19T17:00:17.846Z,52.67
2019-01-19T17:03:19.308Z,52.31
2019-01-19T17:06:09.171Z,52.02
2019-01-19T17:09:16.094Z,51.95
2019-01-19T17:12:21.647Z,51.49
2019-01-19T17:15:35.415Z,50.58
2019-01-19T17:18:16.928Z,51.59
2019-01-19T17:21:16.621Z,51.01
2019-01-19T17:23:58.098Z,51.39
2019-01-19T17:27:03.231Z,50.62
2019-01-19T17:30:13.697Z,52.09
2019-01-19T17:32:58.175Z,52.20
2019-01-19T17:36:14.177Z,51.50
2019-01-19T17:39:04.313Z,52.15
2019-01-19T17:42:19.605Z,50.73
2019-01-19T17:44:58.058Z,50.81
2019-01-19T17:47:50.026Z,50.99
2019-01-19T17:50:34.410Z,51.70
2019-01-19T17:53:16.306Z,52.20
2019-01-19T17:56:16.353Z,52.49
2019-01-19T17:59:25.922Z,53.31
2019-01-19T18:02:35.717Z,52.75
2019-01-19T18:05:38.903Z,52.32
2019-01-19T18:08:50.939Z,52.80
2019-01-19T18:11:49.430Z,52.96
2019-01-19T18:14:47.161Z,52.83
2019-01-19T18:17:44.566Z,53.23
2019-01-19T18:20:52.980Z,52.90
2019-01-19T18:24:02.958Z,53.25
2019-01-19T18:27:07.189Z,53.03
2019-01-19T18:29:50.251Z,52.60
2019-01-19T18:32:32.409Z,53.52
2019-01-19T18:35:37.435Z,53.55
2019-01-19T18:38:52.931Z,53.90
2019-01-19T18:42:00.557Z,54.05
2019-01-19T18:45:17.826Z,53.73
2019-01-19T18:48:06.233Z,55.72
2019-01-19T18:51:14.694Z,55.05
2019-01-19T18:54:23.391Z,53.22
2019-01-19T18:57:32.303Z,53.45
2019-01-19T19:00:15.958Z,51.54
2019-01-19T19:03:31.425Z,51.10
2019-01-19T19:06:57.061Z,51.27
2019-01-19T19:09:35.326Z,51.48
2019-01-19T19:12:36.607Z,51.49
2019-01-19T19:15:15.353Z,52.59
2019-01-19T19:18:20.559Z,51.33
2019-01-19T19:21:43.179Z,51.61
2019-01-19T19:24:38.130Z,51.13
2019-01-19T19:27:38.697Z,50.85
2019-01-19T19:31:07.470Z,49.85
2019-01-19T19:34:03.934Z,49.77
2019-01-19T19:37:03.874Z,49.84
2019-01-19T19:39:57.557Z,50.97
2019-01-19T19:43:14.349Z,50.57
2019-01-19T19:46:39.725Z,51.83
2019-01-19T19:49:22.182Z,53.33
2019-01-19T19:52:02.959Z,51.55
2019-01-19T19:54:33.040Z,52.70
2019-01-19T19:57:02.680Z,51.12
2019-01-19T19:59:32.095Z,51.62
2019-01-19T20:02:01.547Z,52.37
2019-01-19T20:04:30.959Z,51.38
2019-01-19T20:07:00.480Z,52.07
2019-01-19T20:09:29.902Z,52.15
2019-01-19T20:12:04.611Z,52.37
2019-01-19T20:14:33.963Z,53.04
2019-01-19T20:17:03.469Z,51.52
2019-01-19T20:19:32.873Z,52.40
2019-01-19T20:22:02.215Z,52.23
2019-01-19T20:24:31.573Z,52.37
2019-01-19T20:27:00.935Z,50.56
2019-01-19T20:29:30.308Z,49.65
2019-01-19T20:31:59.696Z,49.62
2019-01-19T20:34:29.167Z,51.01
2019-01-19T20:36:58.516Z,51.21
2019-01-19T20:39:27.967Z,50.71
2019-01-19T20:41:57.330Z,50.53
2019-01-19T20:44:26.684Z,51.10
2019-01-19T20:46:56.080Z,51.03
2019-01-19T20:49:25.484Z,50.29
2019-01-19T20:51:54.840Z,51.03
2019-01-19T20:54:24.288Z,50.48
2019-01-19T20:56:53.646Z,51.22
2019-01-19T20:59:23.065Z,51.96
2019-01-19T21:01:52.434Z,50.74
2019-01-19T21:04:21.779Z,52.09
2019-01-19T21:06:51.176Z,51.47
2019-01-19T21:09:20.570Z,51.18
2019-01-19T21:11:49.915Z,51.91
2019-01-19T21:14:19.253Z,50.67
2019-01-19T21:16:48.857Z,51.57
2019-01-19T21:19:18.191Z,51.10
2019-01-19T21:21:47.514Z,50.69
2019-01-19T21:24:16.938Z,51.83
2019-01-19T21:26:46.286Z,51.41
2019-01-19T21:29:15.643Z,52.26
2019-01-19T21:31:45.123Z,51.15
2019-01-19T21:34:14.517Z,49.05
2019-01-19T21:36:43.832Z,48.96
2019-01-19T21:39:13.254Z,49.65
2019-01-19T21:41:42.588Z,49.61
2019-01-19T21:44:11.914Z,48.56
2019-01-19T21:46:41.306Z,49.00
2019-01-19T21:49:10.725Z,50.12
2019-01-19T21:51:40.197Z,50.93
2019-01-19T21:54:09.608Z,51.44
2019-01-19T21:56:38.895Z,51.44
2019-01-19T21:59:08.359Z,51.72
2019-01-19T22:01:37.717Z,52.42
2019-01-19T22:04:07.093Z,53.08
2019-01-19T22:06:36.556Z,52.53
2019-01-19T22:09:07.636Z,52.69
2019-01-19T22:11:37.104Z,51.38
2019-01-19T22:14:06.544Z,52.29
2019-01-19T22:16:35.900Z,52.20
2019-01-19T22:19:05.324Z,53.09
2019-01-19T22:21:34.753Z,52.22
2019-01-19T22:24:04.111Z,52.69
2019-01-19T22:26:33.824Z,52.72
2019-01-19T22:29:03.190Z,51.92
2019-01-19T22:31:32.679Z,52.67
2019-01-19T22:34:02.035Z,52.12
2019-01-19T22:36:31.467Z,52.17
2019-01-19T22:39:01.164Z,52.47
2019-01-19T22:41:30.524Z,52.92
2019-01-19T22:43:59.890Z,56.19
2019-01-19T22:46:29.520Z,55.22
2019-01-19T22:48:58.829Z,54.07
2019-01-19T22:51:28.163Z,54.37
2019-01-19T22:53:57.517Z,54.42
2019-01-19T22:56:26.897Z,54.50
2019-01-19T22:58:56.408Z,56.28
2019-01-19T23:01:30.178Z,54.87
2019-01-19T23:03:59.531Z,54.96
2019-01-19T23:06:28.912Z,54.86
2019-01-19T23:08:58.283Z,55.49
2019-01-19T23:11:33.750Z,55.01
2019-01-19T23:13:58.898Z,55.48
2019-01-19T23:16:28.336Z,56.73
2019-01-19T23:18:57.668Z,56.53
2019-01-19T23:21:27.028Z,56.06
2019-01-19T23:23:56.454Z,55.49
2019-01-19T23:26:26.093Z,55.12
2019-01-19T23:28:55.515Z,54.43
2019-01-19T23:31:24.960Z,55.09
2019-01-19T23:33:54.338Z,56.14
2019-01-19T23:36:23.722Z,54.87
2019-01-19T23:38:53.169Z,55.61
2019-01-19T23:41:24.605Z,55.56
2019-01-19T23:43:54.021Z,56.80
2019-01-19T23:46:23.483Z,55.11
2019-01-19T23:48:53.094Z,54.88
2019-01-19T23:51:22.523Z,54.87
2019-01-19T23:53:51.901Z,54.98
2019-01-19T23:56:21.362Z,55.72
2019-01-19T23:58:50.707Z,54.75
